createdAt,value
2019-02-18T00:02:33.591Z,98808.75
2019-02-18T00:05:38.036Z,98806.98
2019-02-18T00:08:42.475Z,98806.95
2019-02-18T00:11:47.217Z,98806.89
2019-02-18T00:14:51.659Z,98806.47
2019-02-18T00:17:56.095Z,98801.03
2019-02-18T00:21:00.527Z,98797.94
2019-02-18T00:24:05.222Z,98808.66
2019-02-18T00:27:10.053Z,98810.27
2019-02-18T00:30:14.987Z,98806.36
2019-02-18T00:33:19.432Z,98809.54
2019-02-18T00:36:23.870Z,98809.92
2019-02-18T00:39:28.674Z,98810.77
2019-02-18T00:42:33.119Z,98813.03
2019-02-18T00:45:37.940Z,98814.14
2019-02-18T00:48:42.763Z,98814.38
2019-02-18T00:51:47.491Z,98816.62
2019-02-18T00:54:52.229Z,98819.67
2019-02-18T00:57:56.675Z,98815.86
2019-02-18T01:01:01.493Z,98820.97
2019-02-18T01:04:06.532Z,98815.77
2019-02-18T01:07:10.962Z,98816.00
2019-02-18T01:10:16.198Z,98817.81
2019-02-18T01:13:21.324Z,98816.16
2019-02-18T01:16:25.757Z,98812.56
2019-02-18T01:19:30.791Z,98819.19
2019-02-18T01:22:35.226Z,98825.26
2019-02-18T01:25:39.658Z,98828.06
2019-02-18T01:28:44.094Z,98821.55
2019-02-18T01:31:48.525Z,98822.66
2019-02-18T01:34:52.958Z,98819.07
2019-02-18T01:37:57.406Z,98818.91
2019-02-18T01:41:02.160Z,98823.98
2019-02-18T01:44:06.599Z,98819.48
2019-02-18T01:47:11.316Z,98814.00
2019-02-18T01:50:16.499Z,98813.05
2019-02-18T01:53:21.283Z,98807.67
2019-02-18T01:56:26.016Z,98808.89
2019-02-18T01:59:30.461Z,98807.38
2019-02-18T02:02:35.186Z,98804.34
2019-02-18T02:05:39.902Z,98801.91
2019-02-18T02:08:44.352Z,98794.05
2019-02-18T02:11:48.780Z,98793.96
2019-02-18T02:14:53.485Z,98793.66
2019-02-18T02:17:57.920Z,98796.81
2019-02-18T02:21:02.359Z,98798.56
2019-02-18T02:24:06.798Z,98792.14
2019-02-18T02:27:11.478Z,98787.06
2019-02-18T02:30:16.211Z,98786.03
2019-02-18T02:33:20.655Z,98792.95
2019-02-18T02:36:25.089Z,98796.20
2019-02-18T02:39:29.794Z,98797.31
2019-02-18T02:42:34.215Z,98790.92
2019-02-18T02:45:38.661Z,98789.28
2019-02-18T02:48:43.094Z,98790.41
2019-02-18T02:51:47.791Z,98788.27
2019-02-18T02:54:52.524Z,98790.13
2019-02-18T02:57:56.951Z,98787.16
2019-02-18T03:01:01.676Z,98779.01
2019-02-18T03:04:06.112Z,98774.97
2019-02-18T03:07:10.544Z,98776.27
2019-02-18T03:10:15.356Z,98781.16
2019-02-18T03:13:19.784Z,98774.34
2019-02-18T03:16:24.615Z,98779.63
2019-02-18T03:19:29.049Z,98773.82
2019-02-18T03:22:33.486Z,98773.94
2019-02-18T03:25:38.303Z,98766.71
2019-02-18T03:28:59.347Z,98764.46
2019-02-18T03:32:04.040Z,98764.38
2019-02-18T03:35:08.482Z,98777.51
2019-02-18T03:38:12.898Z,98774.64
2019-02-18T03:41:17.344Z,98777.00
2019-02-18T03:44:21.762Z,98774.74
2019-02-18T03:47:26.204Z,98782.78
2019-02-18T03:50:30.888Z,98779.83
2019-02-18T03:53:35.620Z,98772.82
2019-02-18T03:56:40.342Z,98775.66
2019-02-18T03:59:44.875Z,98772.61
2019-02-18T04:02:49.607Z,98773.52
2019-02-18T04:05:54.052Z,98767.73
2019-02-18T04:08:58.468Z,98770.36
2019-02-18T04:12:02.913Z,98773.61
2019-02-18T04:15:11.109Z,98776.06
2019-02-18T04:18:15.543Z,98773.84
2019-02-18T04:21:20.003Z,98783.28
2019-02-18T04:24:24.425Z,98784.81
2019-02-18T04:27:28.868Z,98781.16
2019-02-18T04:30:33.304Z,98787.34
2019-02-18T04:33:37.735Z,98785.61
2019-02-18T04:36:42.465Z,98790.42
2019-02-18T04:39:46.895Z,98788.78
2019-02-18T04:42:51.332Z,98789.28
2019-02-18T04:45:56.144Z,98792.23
2019-02-18T04:49:00.570Z,98790.39
2019-02-18T04:52:05.009Z,98785.62
2019-02-18T04:55:11.574Z,98789.13
2019-02-18T04:58:16.015Z,98783.73
2019-02-18T05:01:20.455Z,98784.94
2019-02-18T05:04:24.882Z,98787.38
2019-02-18T05:07:29.317Z,98789.99
2019-02-18T05:10:33.743Z,98779.55
2019-02-18T05:13:38.189Z,98785.23
2019-02-18T05:16:42.933Z,98788.59
2019-02-18T05:19:47.370Z,98778.72
2019-02-18T05:22:52.084Z,98782.59
2019-02-18T05:25:56.517Z,98778.11
2019-02-18T05:29:00.956Z,98779.95
2019-02-18T05:32:05.396Z,98772.27
2019-02-18T05:35:09.901Z,98776.58
2019-02-18T05:38:14.613Z,98765.90
2019-02-18T05:41:19.051Z,98763.88
2019-02-18T05:44:23.487Z,98762.94
2019-02-18T05:47:27.932Z,98766.37
2019-02-18T05:50:32.356Z,98768.42
2019-02-18T05:53:36.798Z,98763.73
2019-02-18T05:56:41.283Z,98764.14
2019-02-18T05:59:46.107Z,98752.55
2019-02-18T06:02:50.542Z,98759.97
2019-02-18T06:05:54.991Z,98761.95
2019-02-18T06:08:59.467Z,98762.66
2019-02-18T06:12:03.886Z,98758.45
2019-02-18T06:15:10.254Z,98754.66
2019-02-18T06:18:14.699Z,98757.46
2019-02-18T06:21:19.411Z,98751.59
2019-02-18T06:24:23.847Z,98763.56
2019-02-18T06:27:28.283Z,98767.19
2019-02-18T06:30:32.722Z,98769.13
2019-02-18T06:33:37.163Z,98777.62
2019-02-18T06:36:41.603Z,98777.09
2019-02-18T06:39:46.039Z,98778.95
2019-02-18T06:42:50.480Z,98781.86
2019-02-18T06:45:56.538Z,98773.94
2019-02-18T06:49:02.623Z,98780.75
2019-02-18T06:52:07.051Z,98779.41
2019-02-18T06:55:11.489Z,98774.31
2019-02-18T06:58:21.101Z,98778.89
2019-02-18T07:01:29.656Z,98781.25
2019-02-18T07:04:41.748Z,98784.28
2019-02-18T07:07:50.554Z,98788.27
2019-02-18T07:10:56.625Z,98786.06
2019-02-18T07:14:01.364Z,98791.09
2019-02-18T07:17:05.768Z,98785.82
2019-02-18T07:20:10.278Z,98786.53
2019-02-18T07:23:15.087Z,98780.40
2019-02-18T07:26:19.533Z,98781.67
2019-02-18T07:29:23.962Z,98780.48
2019-02-18T07:32:28.706Z,98785.11
2019-02-18T07:35:33.437Z,98776.13
2019-02-18T07:38:38.157Z,98779.48
2019-02-18T07:41:42.889Z,98776.07
2019-02-18T07:44:47.619Z,98773.48
2019-02-18T07:47:52.354Z,98774.72
2019-02-18T07:50:57.183Z,98773.41
2019-02-18T07:54:01.645Z,98771.22
2019-02-18T07:57:06.065Z,98775.02
2019-02-18T08:00:14.212Z,98773.89
2019-02-18T08:03:18.647Z,98772.96
2019-02-18T08:06:23.400Z,98767.29
2019-02-18T08:09:27.850Z,98767.94
2019-02-18T08:12:32.267Z,98767.28
2019-02-18T08:15:36.711Z,98765.61
2019-02-18T08:18:41.150Z,98765.74
2019-02-18T08:21:45.577Z,98764.64
2019-02-18T08:24:50.352Z,98766.92
2019-02-18T08:27:55.083Z,98769.34
2019-02-18T08:30:59.817Z,98769.13
2019-02-18T08:34:04.254Z,98760.18
2019-02-18T08:37:08.691Z,98762.94
2019-02-18T08:40:21.945Z,98762.78
2019-02-18T08:43:19.281Z,98758.39
2019-02-18T08:46:23.977Z,98754.66
2019-02-18T08:49:28.426Z,98763.91
2019-02-18T08:52:32.854Z,98760.84
2019-02-18T08:55:37.302Z,98765.84
2019-02-18T08:58:41.722Z,98756.16
2019-02-18T09:01:46.181Z,98762.38
2019-02-18T09:04:50.615Z,98753.23
2019-02-18T09:07:55.042Z,98752.46
2019-02-18T09:10:59.481Z,98750.47
2019-02-18T09:14:04.194Z,98752.33
2019-02-18T09:17:08.634Z,98750.91
2019-02-18T09:20:13.138Z,98746.49
2019-02-18T09:23:28.160Z,98748.09
2019-02-18T09:26:32.611Z,98741.66
2019-02-18T09:29:37.036Z,98739.01
2019-02-18T09:32:41.805Z,98735.98
2019-02-18T09:35:46.252Z,98736.16
2019-02-18T09:38:50.953Z,98732.17
2019-02-18T09:41:55.686Z,98727.95
2019-02-18T09:45:00.440Z,98729.84
2019-02-18T09:48:04.844Z,98721.14
2019-02-18T09:51:09.280Z,98721.37
2019-02-18T09:54:13.718Z,98715.57
2019-02-18T09:57:18.164Z,98705.65
2019-02-18T10:00:22.609Z,98696.78
2019-02-18T10:03:32.095Z,98690.44
2019-02-18T10:06:33.213Z,98686.67
2019-02-18T10:09:37.649Z,98685.28
2019-02-18T10:12:42.393Z,98681.77
2019-02-18T10:15:46.822Z,98679.27
2019-02-18T10:18:51.534Z,98677.44
2019-02-18T10:21:56.265Z,98674.85
2019-02-18T10:25:00.775Z,98672.65
2019-02-18T10:28:05.224Z,98678.88
2019-02-18T10:31:09.684Z,98673.16
2019-02-18T10:34:14.124Z,98670.72
2019-02-18T10:37:18.893Z,98665.92
2019-02-18T10:40:23.331Z,98659.86
2019-02-18T10:43:32.528Z,98662.27
2019-02-18T10:46:33.953Z,98649.84
2019-02-18T10:49:38.622Z,98656.12
2019-02-18T10:52:43.067Z,98646.30
2019-02-18T10:55:47.514Z,98634.41
2019-02-18T10:58:51.954Z,98635.56
2019-02-18T11:01:56.409Z,98628.48
2019-02-18T11:05:00.840Z,98625.62
2019-02-18T11:08:05.587Z,98620.17
2019-02-18T11:11:16.935Z,98612.36
2019-02-18T11:14:16.794Z,98611.94
2019-02-18T11:17:21.311Z,98599.89
2019-02-18T11:20:25.748Z,98601.25
2019-02-18T11:23:30.470Z,98592.63
2019-02-18T11:26:34.910Z,98588.89
2019-02-18T11:29:39.346Z,98581.55
2019-02-18T11:32:43.792Z,98574.64
2019-02-18T11:35:48.229Z,98569.96
2019-02-18T11:38:53.299Z,98568.98
2019-02-18T11:41:58.033Z,98564.16
2019-02-18T11:45:02.478Z,98560.13
2019-02-18T11:48:06.916Z,98551.18
2019-02-18T11:51:11.609Z,98549.45
2019-02-18T11:54:16.054Z,98548.28
2019-02-18T11:57:20.762Z,98542.82
2019-02-18T12:00:25.499Z,98547.70
2019-02-18T12:03:29.940Z,98545.25
2019-02-18T12:06:34.378Z,98541.41
2019-02-18T12:09:40.820Z,98532.98
2019-02-18T12:12:45.050Z,98532.49
2019-02-18T12:15:49.487Z,98525.33
2019-02-18T12:18:53.931Z,98521.34
2019-02-18T12:21:58.614Z,98506.34
2019-02-18T12:25:03.063Z,98505.30
2019-02-18T12:28:07.505Z,98497.37
2019-02-18T12:31:11.940Z,98495.30
2019-02-18T12:34:16.391Z,98493.61
2019-02-18T12:37:21.138Z,98494.47
2019-02-18T12:40:25.575Z,98492.89
2019-02-18T12:43:30.295Z,98484.65
2019-02-18T12:46:35.432Z,98478.01
2019-02-18T12:49:42.200Z,98466.04
2019-02-18T12:52:46.647Z,98469.16
2019-02-18T12:55:51.366Z,98458.70
2019-02-18T12:58:55.809Z,98456.62
2019-02-18T13:02:00.517Z,98450.23
2019-02-18T13:05:06.981Z,98445.50
2019-02-18T13:08:11.425Z,98441.92
2019-02-18T13:11:15.897Z,98438.07
2019-02-18T13:14:20.396Z,98425.55
2019-02-18T13:17:25.096Z,98423.77
2019-02-18T13:20:29.540Z,98420.92
2019-02-18T13:23:33.988Z,98419.67
2019-02-18T13:26:38.425Z,98415.34
2019-02-18T13:29:43.203Z,98409.48
2019-02-18T13:32:47.639Z,98406.45
2019-02-18T13:35:52.085Z,98397.94
2019-02-18T13:38:56.533Z,98394.27
2019-02-18T13:42:07.278Z,98393.02
2019-02-18T13:45:08.986Z,98387.11
2019-02-18T13:48:13.433Z,98384.08
2019-02-18T13:51:24.049Z,98379.00
2019-02-18T13:54:24.042Z,98376.90
2019-02-18T13:57:28.743Z,98373.45
2019-02-18T14:00:33.886Z,98371.07
2019-02-18T14:03:38.334Z,98375.66
2019-02-18T14:06:42.776Z,98378.47
2019-02-18T14:09:47.494Z,98372.08
2019-02-18T14:12:52.002Z,98371.98
2019-02-18T14:15:56.445Z,98367.16
2019-02-18T14:19:00.894Z,98365.33
2019-02-18T14:22:06.643Z,98363.56
2019-02-18T14:25:11.605Z,98361.22
2019-02-18T14:28:16.361Z,98366.50
2019-02-18T14:31:20.803Z,98362.37
2019-02-18T14:34:25.517Z,98356.09
2019-02-18T14:37:29.949Z,98353.25
2019-02-18T14:40:34.569Z,98346.96
2019-02-18T14:43:39.035Z,98345.22
2019-02-18T14:46:43.472Z,98345.92
2019-02-18T14:49:47.922Z,98338.52
2019-02-18T14:52:52.765Z,98345.84
2019-02-18T14:55:57.217Z,98354.47
2019-02-18T14:59:01.734Z,98347.76
2019-02-18T15:02:06.650Z,98348.50
2019-02-18T15:05:11.091Z,98346.87
2019-02-18T15:08:15.809Z,98341.16
2019-02-18T15:11:20.542Z,98338.00
2019-02-18T15:14:24.985Z,98335.67
2019-02-18T15:17:30.003Z,98329.86
2019-02-18T15:20:34.452Z,98329.19
2019-02-18T15:23:38.884Z,98331.22
2019-02-18T15:26:43.514Z,98331.72
2019-02-18T15:29:47.958Z,98325.95
2019-02-18T15:32:52.431Z,98327.03
2019-02-18T15:35:56.875Z,98329.55
2019-02-18T15:39:01.309Z,98324.31
2019-02-18T15:42:06.103Z,98321.78
2019-02-18T15:45:11.085Z,98319.61
2019-02-18T15:48:15.572Z,98316.76
2019-02-18T15:51:20.029Z,98315.84
2019-02-18T15:54:24.728Z,98311.06
2019-02-18T15:57:29.203Z,98315.59
2019-02-18T16:00:33.644Z,98307.33
2019-02-18T16:03:38.080Z,98311.12
2019-02-18T16:06:42.528Z,98311.29
2019-02-18T16:09:46.988Z,98306.30
2019-02-18T16:12:51.675Z,98309.64
2019-02-18T16:15:56.244Z,98309.29
2019-02-18T16:19:00.677Z,98303.84
2019-02-18T16:22:05.117Z,98303.86
2019-02-18T16:25:17.010Z,98310.57
2019-02-18T16:28:21.512Z,98308.22
2019-02-18T16:31:25.958Z,98310.55
2019-02-18T16:34:30.394Z,98308.44
2019-02-18T16:37:34.838Z,98314.17
2019-02-18T16:40:39.281Z,98320.62
2019-02-18T16:43:44.042Z,98314.97
2019-02-18T16:46:48.445Z,98322.80
2019-02-18T16:49:52.902Z,98319.28
2019-02-18T16:52:57.331Z,98320.45
2019-02-18T16:56:01.768Z,98326.48
2019-02-18T16:59:06.206Z,98325.19
2019-02-18T17:02:10.656Z,98326.88
2019-02-18T17:05:15.092Z,98330.48
2019-02-18T17:08:19.535Z,98332.10
2019-02-18T17:11:23.983Z,98333.77
2019-02-18T17:14:28.423Z,98335.20
2019-02-18T17:17:32.879Z,98335.77
2019-02-18T17:20:37.321Z,98336.60
2019-02-18T17:23:41.772Z,98335.01
2019-02-18T17:26:46.225Z,98337.16
2019-02-18T17:29:50.658Z,98336.38
2019-02-18T17:32:55.482Z,98340.95
2019-02-18T17:35:59.920Z,98341.47
2019-02-18T17:39:05.262Z,98338.51
2019-02-18T17:42:10.054Z,98343.87
2019-02-18T17:45:17.103Z,98342.00
2019-02-18T17:48:21.538Z,98339.54
2019-02-18T17:51:25.982Z,98340.55
2019-02-18T17:54:30.758Z,98345.63
2019-02-18T17:57:35.194Z,98345.29
2019-02-18T18:00:44.013Z,98342.59
2019-02-18T18:03:48.445Z,98347.05
2019-02-18T18:06:53.186Z,98348.02
2019-02-18T18:09:57.666Z,98349.59
2019-02-18T18:13:02.111Z,98354.22
2019-02-18T18:16:06.535Z,98354.67
2019-02-18T18:19:11.265Z,98361.66
2019-02-18T18:22:15.704Z,98357.94
2019-02-18T18:25:20.130Z,98360.34
2019-02-18T18:28:24.569Z,98356.17
2019-02-18T18:31:29.002Z,98365.88
2019-02-18T18:34:33.445Z,98370.09
2019-02-18T18:37:37.882Z,98376.13
2019-02-18T18:40:42.312Z,98371.23
2019-02-18T18:43:46.745Z,98370.48
2019-02-18T18:46:51.483Z,98373.88
2019-02-18T18:49:56.625Z,98371.89
2019-02-18T18:53:01.072Z,98375.49
2019-02-18T18:56:05.550Z,98373.67
2019-02-18T18:59:09.987Z,98367.55
2019-02-18T19:02:14.414Z,98373.59
2019-02-18T19:05:18.848Z,98370.52
2019-02-18T19:08:23.297Z,98375.71
2019-02-18T19:11:27.730Z,98374.41
2019-02-18T19:14:32.293Z,98372.30
2019-02-18T19:17:36.731Z,98371.73
2019-02-18T19:20:41.160Z,98371.14
2019-02-18T19:23:45.597Z,98376.05
2019-02-18T19:26:50.029Z,98377.59
2019-02-18T19:29:55.156Z,98377.60
2019-02-18T19:32:59.641Z,98378.41
2019-02-18T19:36:04.413Z,98383.39
2019-02-18T19:39:09.234Z,98389.17
2019-02-18T19:42:13.672Z,98386.98
2019-02-18T19:45:23.499Z,98391.34
2019-02-18T19:48:27.943Z,98386.48
2019-02-18T19:51:32.376Z,98381.70
2019-02-18T19:54:36.809Z,98387.80
2019-02-18T19:57:41.520Z,98385.70
2019-02-18T20:00:45.970Z,98386.88
2019-02-18T20:03:50.393Z,98387.45
2019-02-18T20:06:54.827Z,98385.14
2019-02-18T20:09:59.535Z,98394.05
2019-02-18T20:13:04.280Z,98396.16
2019-02-18T20:16:08.690Z,98397.81
2019-02-18T20:19:13.512Z,98395.94
2019-02-18T20:22:17.938Z,98406.33
2019-02-18T20:25:22.658Z,98408.08
2019-02-18T20:28:27.090Z,98404.80
2019-02-18T20:31:31.813Z,98407.29
2019-02-18T20:34:36.252Z,98411.28
2019-02-18T20:37:40.694Z,98405.88
2019-02-18T20:40:45.389Z,98408.69
2019-02-18T20:43:50.123Z,98406.81
2019-02-18T20:46:54.852Z,98407.08
2019-02-18T20:49:59.293Z,98407.13
2019-02-18T20:53:03.723Z,98404.23
2019-02-18T20:56:08.436Z,98407.53
2019-02-18T20:59:12.877Z,98407.59
2019-02-18T21:02:18.581Z,98402.44
2019-02-18T21:05:23.068Z,98403.80
2019-02-18T21:08:27.930Z,98401.05
2019-02-18T21:11:32.376Z,98406.44
2019-02-18T21:14:36.958Z,98406.34
2019-02-18T21:17:41.564Z,98403.57
2019-02-18T21:20:46.003Z,98413.22
2019-02-18T21:23:50.670Z,98408.58
2019-02-18T21:26:55.117Z,98413.41
2019-02-18T21:29:59.858Z,98417.35
2019-02-18T21:33:04.288Z,98424.81
2019-02-18T21:36:09.040Z,98424.22
2019-02-18T21:39:13.471Z,98424.30
2019-02-18T21:42:17.978Z,98421.77
2019-02-18T21:45:22.689Z,98414.78
2019-02-18T21:48:27.119Z,98420.29
2019-02-18T21:51:31.849Z,98426.13
2019-02-18T21:54:36.580Z,98435.67
2019-02-18T21:57:41.085Z,98431.59
2019-02-18T22:00:45.522Z,98428.56
2019-02-18T22:03:49.945Z,98434.94
2019-02-18T22:06:54.781Z,98441.03
2019-02-18T22:09:59.514Z,98436.55
2019-02-18T22:13:04.219Z,98437.72
2019-02-18T22:16:08.665Z,98447.43
2019-02-18T22:19:13.096Z,98442.20
2019-02-18T22:22:17.534Z,98445.22
2019-02-18T22:25:21.958Z,98445.41
2019-02-18T22:28:26.386Z,98444.70
2019-02-18T22:31:30.827Z,98450.36
2019-02-18T22:34:35.259Z,98452.84
2019-02-18T22:37:40.868Z,98457.31
2019-02-18T22:40:45.352Z,98449.91
2019-02-18T22:43:50.117Z,98458.06
2019-02-18T22:46:54.603Z,98447.25
2019-02-18T22:49:59.032Z,98451.43
2019-02-18T22:53:03.505Z,98455.56
2019-02-18T22:56:07.924Z,98453.88
2019-02-18T22:59:12.356Z,98456.68
2019-02-18T23:02:16.790Z,98453.20
2019-02-18T23:05:21.219Z,98460.48
2019-02-18T23:08:25.722Z,98464.70
2019-02-18T23:11:30.159Z,98470.67
2019-02-18T23:14:34.783Z,98469.66
2019-02-18T23:17:39.493Z,98476.30
2019-02-18T23:20:43.919Z,98479.77
2019-02-18T23:23:48.354Z,98481.69
2019-02-18T23:26:53.074Z,98491.09
2019-02-18T23:29:57.798Z,98489.38
2019-02-18T23:33:02.532Z,98487.53
2019-02-18T23:36:06.970Z,98484.80
2019-02-18T23:39:11.407Z,98486.60
2019-02-18T23:42:15.845Z,98481.29
2019-02-18T23:45:20.277Z,98484.81
2019-02-18T23:48:24.714Z,98486.76
2019-02-18T23:51:29.148Z,98489.95
2019-02-18T23:54:33.579Z,98486.20
2019-02-18T23:57:38.024Z,98489.68
